sensor_id;sensor_type;location;lat;lon;timestamp;P1;durP1;ratioP1;P2;durP2;ratioP2
22064;SDS011;11197;53.110;8.468;2022-11-25T00:01:28;29.70;;;13.82;;
22064;SDS011;11197;53.110;8.468;2022-11-25T00:03:55;28.88;;;13.43;;
22064;SDS011;11197;53.110;8.468;2022-11-25T00:06:25;29.67;;;14.38;;
22064;SDS011;11197;53.110;8.468;2022-11-25T00:09:05;32.97;;;14.45;;
22064;SDS011;11197;53.110;8.468;2022-11-25T00:11:35;28.73;;;14.32;;
22064;SDS011;11197;53.110;8.468;2022-11-25T00:14:03;28.65;;;14.02;;
22064;SDS011;11197;53.110;8.468;2022-11-25T00:16:30;28.10;;;13.75;;
22064;SDS011;11197;53.110;8.468;2022-11-25T00:18:56;28.90;;;13.68;;
22064;SDS011;11197;53.110;8.468;2022-11-25T00:21:25;29.23;;;12.85;;
22064;SDS011;11197;53.110;8.468;2022-11-25T00:24:00;27.20;;;12.60;;
22064;SDS011;11197;53.110;8.468;2022-11-25T00:26:30;28.80;;;12.70;;
22064;SDS011;11197;53.110;8.468;2022-11-25T00:28:57;24.13;;;11.93;;
22064;SDS011;11197;53.110;8.468;2022-11-25T00:31:26;26.67;;;12.25;;
22064;SDS011;11197;53.110;8.468;2022-11-25T00:33:53;24.02;;;11.27;;
22064;SDS011;11197;53.110;8.468;2022-11-25T00:39:02;17.30;;;8.67;;
22064;SDS011;11197;53.110;8.468;2022-11-25T00:44:16;20.00;;;9.68;;
22064;SDS011;11197;53.110;8.468;2022-11-25T00:47:12;19.63;;;10.25;;
22064;SDS011;11197;53.110;8.468;2022-11-25T00:52:20;23.80;;;9.88;;
22064;SDS011;11197;53.110;8.468;2022-11-25T00:54:48;26.63;;;10.05;;
22064;SDS011;11197;53.110;8.468;2022-11-25T00:57:16;23.90;;;10.15;;
22064;SDS011;11197;53.110;8.468;2022-11-25T00:59:43;20.00;;;9.38;;
22064;SDS011;11197;53.110;8.468;2022-11-25T01:02:10;21.30;;;9.43;;
22064;SDS011;11197;53.110;8.468;2022-11-25T01:04:37;20.88;;;9.02;;
22064;SDS011;11197;53.110;8.468;2022-11-25T01:07:04;18.95;;;8.88;;
22064;SDS011;11197;53.110;8.468;2022-11-25T01:09:33;18.08;;;8.00;;
22064;SDS011;11197;53.110;8.468;2022-11-25T01:11:58;18.80;;;8.25;;
22064;SDS011;11197;53.110;8.468;2022-11-25T01:14:26;20.58;;;8.25;;
22064;SDS011;11197;53.110;8.468;2022-11-25T01:16:52;17.95;;;7.65;;
22064;SDS011;11197;53.110;8.468;2022-11-25T01:19:18;22.35;;;7.97;;
22064;SDS011;11197;53.110;8.468;2022-11-25T01:21:44;18.20;;;7.57;;
22064;SDS011;11197;53.110;8.468;2022-11-25T01:24:12;23.38;;;7.65;;
22064;SDS011;11197;53.110;8.468;2022-11-25T01:26:39;17.27;;;7.80;;
22064;SDS011;11197;53.110;8.468;2022-11-25T01:29:09;19.23;;;8.07;;
22064;SDS011;11197;53.110;8.468;2022-11-25T01:31:46;19.60;;;7.32;;
22064;SDS011;11197;53.110;8.468;2022-11-25T01:34:14;20.33;;;7.22;;
22064;SDS011;11197;53.110;8.468;2022-11-25T01:36:42;21.60;;;7.18;;
22064;SDS011;11197;53.110;8.468;2022-11-25T01:39:10;19.38;;;7.20;;
22064;SDS011;11197;53.110;8.468;2022-11-25T01:41:42;23.65;;;7.10;;
22064;SDS011;11197;53.110;8.468;2022-11-25T01:44:13;18.30;;;6.95;;
22064;SDS011;11197;53.110;8.468;2022-11-25T01:46:44;16.80;;;6.57;;
22064;SDS011;11197;53.110;8.468;2022-11-25T01:52:13;16.00;;;6.57;;
22064;SDS011;11197;53.110;8.468;2022-11-25T01:54:52;17.92;;;6.40;;
22064;SDS011;11197;53.110;8.468;2022-11-25T01:57:37;15.60;;;6.53;;
22064;SDS011;11197;53.110;8.468;2022-11-25T02:00:08;16.17;;;6.88;;
22064;SDS011;11197;53.110;8.468;2022-11-25T02:02:44;17.17;;;6.03;;
22064;SDS011;11197;53.110;8.468;2022-11-25T02:05:12;18.77;;;6.10;;
22064;SDS011;11197;53.110;8.468;2022-11-25T02:07:41;15.85;;;5.93;;
22064;SDS011;11197;53.110;8.468;2022-11-25T02:10:13;16.33;;;5.00;;
22064;SDS011;11197;53.110;8.468;2022-11-25T02:12:44;14.45;;;5.90;;
22064;SDS011;11197;53.110;8.468;2022-11-25T02:15:10;16.42;;;6.10;;
22064;SDS011;11197;53.110;8.468;2022-11-25T02:17:38;18.80;;;5.45;;
22064;SDS011;11197;53.110;8.468;2022-11-25T02:20:07;15.63;;;5.50;;
22064;SDS011;11197;53.110;8.468;2022-11-25T02:25:43;22.83;;;5.60;;
22064;SDS011;11197;53.110;8.468;2022-11-25T02:28:23;13.45;;;4.97;;
22064;SDS011;11197;53.110;8.468;2022-11-25T02:30:51;17.38;;;5.00;;
22064;SDS011;11197;53.110;8.468;2022-11-25T02:33:18;16.98;;;4.70;;
22064;SDS011;11197;53.110;8.468;2022-11-25T02:38:34;14.95;;;4.05;;
22064;SDS011;11197;53.110;8.468;2022-11-25T02:41:16;13.60;;;4.13;;
22064;SDS011;11197;53.110;8.468;2022-11-25T02:43:46;15.27;;;4.45;;
22064;SDS011;11197;53.110;8.468;2022-11-25T02:46:13;14.63;;;4.43;;
22064;SDS011;11197;53.110;8.468;2022-11-25T02:48:43;17.40;;;4.22;;
22064;SDS011;11197;53.110;8.468;2022-11-25T02:51:11;15.95;;;4.05;;
22064;SDS011;11197;53.110;8.468;2022-11-25T02:53:38;19.40;;;4.32;;
22064;SDS011;11197;53.110;8.468;2022-11-25T02:56:05;16.85;;;4.13;;
22064;SDS011;11197;53.110;8.468;2022-11-25T02:58:34;15.98;;;3.92;;
22064;SDS011;11197;53.110;8.468;2022-11-25T03:01:00;15.77;;;3.85;;
22064;SDS011;11197;53.110;8.468;2022-11-25T03:03:26;17.13;;;4.05;;
22064;SDS011;11197;53.110;8.468;2022-11-25T03:05:52;13.90;;;3.65;;
22064;SDS011;11197;53.110;8.468;2022-11-25T03:08:18;12.05;;;3.50;;
22064;SDS011;11197;53.110;8.468;2022-11-25T03:10:44;15.38;;;3.90;;
22064;SDS011;11197;53.110;8.468;2022-11-25T03:13:11;14.18;;;3.50;;
22064;SDS011;11197;53.110;8.468;2022-11-25T03:15:38;16.05;;;3.67;;
22064;SDS011;11197;53.110;8.468;2022-11-25T03:18:04;12.57;;;3.60;;
22064;SDS011;11197;53.110;8.468;2022-11-25T03:20:32;12.57;;;3.00;;
22064;SDS011;11197;53.110;8.468;2022-11-25T03:23:03;13.32;;;3.80;;
22064;SDS011;11197;53.110;8.468;2022-11-25T03:25:29;16.35;;;3.33;;
22064;SDS011;11197;53.110;8.468;2022-11-25T03:27:56;17.15;;;3.30;;
22064;SDS011;11197;53.110;8.468;2022-11-25T03:30:24;13.52;;;3.60;;
22064;SDS011;11197;53.110;8.468;2022-11-25T03:32:55;16.58;;;3.70;;
22064;SDS011;11197;53.110;8.468;2022-11-25T03:35:23;14.27;;;3.38;;
22064;SDS011;11197;53.110;8.468;2022-11-25T03:37:49;13.65;;;3.45;;
22064;SDS011;11197;53.110;8.468;2022-11-25T03:40:17;12.57;;;3.20;;
22064;SDS011;11197;53.110;8.468;2022-11-25T03:42:44;13.57;;;3.60;;
22064;SDS011;11197;53.110;8.468;2022-11-25T03:45:10;13.13;;;3.13;;
22064;SDS011;11197;53.110;8.468;2022-11-25T03:47:40;11.55;;;3.38;;
22064;SDS011;11197;53.110;8.468;2022-11-25T03:50:07;14.52;;;3.85;;
22064;SDS011;11197;53.110;8.468;2022-11-25T03:52:34;14.52;;;3.58;;
22064;SDS011;11197;53.110;8.468;2022-11-25T03:55:00;12.52;;;3.60;;
22064;SDS011;11197;53.110;8.468;2022-11-25T03:57:30;19.13;;;3.75;;
22064;SDS011;11197;53.110;8.468;2022-11-25T03:59:57;12.23;;;3.35;;
22064;SDS011;11197;53.110;8.468;2022-11-25T04:02:25;14.88;;;3.42;;
22064;SDS011;11197;53.110;8.468;2022-11-25T04:05:14;16.83;;;3.37;;
22064;SDS011;11197;53.110;8.468;2022-11-25T04:07:40;17.00;;;3.45;;
22064;SDS011;11197;53.110;8.468;2022-11-25T04:10:07;15.52;;;3.22;;
22064;SDS011;11197;53.110;8.468;2022-11-25T04:12:34;16.52;;;3.90;;
22064;SDS011;11197;53.110;8.468;2022-11-25T04:15:16;12.75;;;3.20;;
22064;SDS011;11197;53.110;8.468;2022-11-25T04:17:46;16.60;;;3.22;;
22064;SDS011;11197;53.110;8.468;2022-11-25T04:20:13;14.27;;;3.47;;
22064;SDS011;11197;53.110;8.468;2022-11-25T04:22:41;13.90;;;3.15;;
22064;SDS011;11197;53.110;8.468;2022-11-25T04:25:09;14.52;;;2.88;;
22064;SDS011;11197;53.110;8.468;2022-11-25T04:27:35;14.43;;;3.20;;
22064;SDS011;11197;53.110;8.468;2022-11-25T04:30:01;17.17;;;3.08;;
22064;SDS011;11197;53.110;8.468;2022-11-25T04:32:27;16.05;;;3.65;;
22064;SDS011;11197;53.110;8.468;2022-11-25T04:34:54;10.00;;;3.00;;
22064;SDS011;11197;53.110;8.468;2022-11-25T04:37:20;14.93;;;3.80;;
22064;SDS011;11197;53.110;8.468;2022-11-25T04:39:47;15.13;;;4.03;;
22064;SDS011;11197;53.110;8.468;2022-11-25T04:42:16;13.60;;;3.40;;
22064;SDS011;11197;53.110;8.468;2022-11-25T04:45:02;12.18;;;3.28;;
22064;SDS011;11197;53.110;8.468;2022-11-25T04:47:31;14.65;;;3.63;;
22064;SDS011;11197;53.110;8.468;2022-11-25T04:49:57;12.40;;;3.45;;
22064;SDS011;11197;53.110;8.468;2022-11-25T04:52:23;14.93;;;3.50;;
22064;SDS011;11197;53.110;8.468;2022-11-25T04:54:50;12.48;;;3.42;;
22064;SDS011;11197;53.110;8.468;2022-11-25T04:57:16;15.50;;;3.90;;
22064;SDS011;11197;53.110;8.468;2022-11-25T04:59:44;11.68;;;3.30;;
22064;SDS011;11197;53.110;8.468;2022-11-25T05:02:20;13.55;;;3.30;;
22064;SDS011;11197;53.110;8.468;2022-11-25T05:04:58;12.75;;;3.30;;
22064;SDS011;11197;53.110;8.468;2022-11-25T05:07:25;11.70;;;3.30;;
22064;SDS011;11197;53.110;8.468;2022-11-25T05:09:54;9.73;;;3.63;;
22064;SDS011;11197;53.110;8.468;2022-11-25T05:12:31;12.23;;;3.45;;
22064;SDS011;11197;53.110;8.468;2022-11-25T05:14:58;13.40;;;3.58;;
22064;SDS011;11197;53.110;8.468;2022-11-25T05:17:29;14.68;;;3.53;;
22064;SDS011;11197;53.110;8.468;2022-11-25T05:19:57;11.48;;;3.03;;
22064;SDS011;11197;53.110;8.468;2022-11-25T05:22:27;13.38;;;3.78;;
22064;SDS011;11197;53.110;8.468;2022-11-25T05:24:54;12.52;;;3.40;;
22064;SDS011;11197;53.110;8.468;2022-11-25T05:27:21;14.32;;;3.45;;
22064;SDS011;11197;53.110;8.468;2022-11-25T05:29:47;13.52;;;3.55;;
22064;SDS011;11197;53.110;8.468;2022-11-25T05:32:13;9.40;;;3.22;;
22064;SDS011;11197;53.110;8.468;2022-11-25T05:34:42;16.00;;;3.80;;
22064;SDS011;11197;53.110;8.468;2022-11-25T05:37:08;11.77;;;3.17;;
22064;SDS011;11197;53.110;8.468;2022-11-25T05:39:37;11.10;;;3.20;;
22064;SDS011;11197;53.110;8.468;2022-11-25T05:42:21;12.48;;;3.60;;
22064;SDS011;11197;53.110;8.468;2022-11-25T05:44:48;12.30;;;3.35;;
22064;SDS011;11197;53.110;8.468;2022-11-25T05:47:13;12.65;;;3.20;;
22064;SDS011;11197;53.110;8.468;2022-11-25T05:49:40;14.00;;;3.40;;
22064;SDS011;11197;53.110;8.468;2022-11-25T05:52:06;12.65;;;3.10;;
22064;SDS011;11197;53.110;8.468;2022-11-25T05:54:40;12.27;;;3.30;;
22064;SDS011;11197;53.110;8.468;2022-11-25T05:57:07;14.63;;;3.45;;
22064;SDS011;11197;53.110;8.468;2022-11-25T05:59:49;12.23;;;3.30;;
22064;SDS011;11197;53.110;8.468;2022-11-25T06:02:38;13.85;;;3.50;;
22064;SDS011;11197;53.110;8.468;2022-11-25T06:05:05;12.57;;;3.22;;
22064;SDS011;11197;53.110;8.468;2022-11-25T06:07:31;11.20;;;3.15;;
22064;SDS011;11197;53.110;8.468;2022-11-25T06:09:57;16.48;;;3.40;;
22064;SDS011;11197;53.110;8.468;2022-11-25T06:12:24;10.23;;;2.90;;
22064;SDS011;11197;53.110;8.468;2022-11-25T06:14:50;12.25;;;3.50;;
22064;SDS011;11197;53.110;8.468;2022-11-25T06:17:16;17.17;;;3.90;;
22064;SDS011;11197;53.110;8.468;2022-11-25T06:19:50;12.95;;;3.35;;
22064;SDS011;11197;53.110;8.468;2022-11-25T06:22:16;12.80;;;3.67;;
22064;SDS011;11197;53.110;8.468;2022-11-25T06:24:42;13.20;;;3.45;;
22064;SDS011;11197;53.110;8.468;2022-11-25T06:27:08;14.88;;;3.63;;
22064;SDS011;11197;53.110;8.468;2022-11-25T06:29:35;11.93;;;3.53;;
22064;SDS011;11197;53.110;8.468;2022-11-25T06:32:01;15.50;;;3.80;;
22064;SDS011;11197;53.110;8.468;2022-11-25T06:34:48;14.07;;;3.65;;
22064;SDS011;11197;53.110;8.468;2022-11-25T06:37:34;20.45;;;3.90;;
22064;SDS011;11197;53.110;8.468;2022-11-25T06:40:00;17.95;;;4.05;;
22064;SDS011;11197;53.110;8.468;2022-11-25T06:42:27;15.95;;;4.00;;
22064;SDS011;11197;53.110;8.468;2022-11-25T06:44:53;15.68;;;3.85;;
22064;SDS011;11197;53.110;8.468;2022-11-25T06:47:19;13.82;;;4.00;;
22064;SDS011;11197;53.110;8.468;2022-11-25T06:49:45;12.55;;;4.22;;
22064;SDS011;11197;53.110;8.468;2022-11-25T06:52:11;14.93;;;4.07;;
22064;SDS011;11197;53.110;8.468;2022-11-25T06:54:37;13.23;;;4.05;;
22064;SDS011;11197;53.110;8.468;2022-11-25T06:57:06;14.82;;;4.13;;
22064;SDS011;11197;53.110;8.468;2022-11-25T06:59:32;14.68;;;4.00;;
22064;SDS011;11197;53.110;8.468;2022-11-25T07:01:58;10.70;;;3.95;;
22064;SDS011;11197;53.110;8.468;2022-11-25T07:04:25;14.88;;;3.60;;
22064;SDS011;11197;53.110;8.468;2022-11-25T07:06:51;14.10;;;3.83;;
22064;SDS011;11197;53.110;8.468;2022-11-25T07:09:17;14.57;;;4.10;;
22064;SDS011;11197;53.110;8.468;2022-11-25T07:11:44;14.38;;;3.63;;
22064;SDS011;11197;53.110;8.468;2022-11-25T07:14:11;16.00;;;4.45;;
22064;SDS011;11197;53.110;8.468;2022-11-25T07:16:39;13.88;;;3.70;;
22064;SDS011;11197;53.110;8.468;2022-11-25T07:19:06;10.32;;;3.70;;
22064;SDS011;11197;53.110;8.468;2022-11-25T07:21:33;14.85;;;4.30;;
22064;SDS011;11197;53.110;8.468;2022-11-25T07:24:01;12.70;;;4.00;;
22064;SDS011;11197;53.110;8.468;2022-11-25T07:26:30;16.35;;;4.88;;
22064;SDS011;11197;53.110;8.468;2022-11-25T07:29:00;14.55;;;4.82;;
22064;SDS011;11197;53.110;8.468;2022-11-25T07:31:32;12.98;;;4.68;;
22064;SDS011;11197;53.110;8.468;2022-11-25T07:34:01;14.80;;;5.00;;
22064;SDS011;11197;53.110;8.468;2022-11-25T07:36:36;15.77;;;4.88;;
22064;SDS011;11197;53.110;8.468;2022-11-25T07:39:06;13.13;;;4.32;;
22064;SDS011;11197;53.110;8.468;2022-11-25T07:41:35;12.23;;;4.13;;
22064;SDS011;11197;53.110;8.468;2022-11-25T07:44:02;13.80;;;4.72;;
22064;SDS011;11197;53.110;8.468;2022-11-25T07:46:42;15.50;;;4.90;;
22064;SDS011;11197;53.110;8.468;2022-11-25T07:49:11;17.50;;;4.55;;
22064;SDS011;11197;53.110;8.468;2022-11-25T07:51:41;11.63;;;4.32;;
22064;SDS011;11197;53.110;8.468;2022-11-25T07:54:11;15.73;;;4.88;;
22064;SDS011;11197;53.110;8.468;2022-11-25T07:56:40;16.90;;;4.28;;
22064;SDS011;11197;53.110;8.468;2022-11-25T07:59:09;10.55;;;3.92;;
22064;SDS011;11197;53.110;8.468;2022-11-25T08:01:40;14.40;;;4.50;;
22064;SDS011;11197;53.110;8.468;2022-11-25T08:04:07;14.98;;;4.22;;
22064;SDS011;11197;53.110;8.468;2022-11-25T08:06:39;13.40;;;4.22;;
22064;SDS011;11197;53.110;8.468;2022-11-25T08:09:10;9.35;;;3.63;;
22064;SDS011;11197;53.110;8.468;2022-11-25T08:11:38;13.98;;;4.32;;
22064;SDS011;11197;53.110;8.468;2022-11-25T08:14:04;18.70;;;4.90;;
22064;SDS011;11197;53.110;8.468;2022-11-25T08:16:31;12.25;;;3.88;;
22064;SDS011;11197;53.110;8.468;2022-11-25T08:18:59;11.93;;;3.70;;
22064;SDS011;11197;53.110;8.468;2022-11-25T08:21:27;12.55;;;4.03;;
22064;SDS011;11197;53.110;8.468;2022-11-25T08:23:53;12.93;;;4.13;;
22064;SDS011;11197;53.110;8.468;2022-11-25T08:26:23;17.00;;;4.18;;
22064;SDS011;11197;53.110;8.468;2022-11-25T08:28:52;17.65;;;4.10;;
22064;SDS011;11197;53.110;8.468;2022-11-25T08:31:20;16.58;;;4.72;;
22064;SDS011;11197;53.110;8.468;2022-11-25T08:33:48;17.98;;;4.45;;
22064;SDS011;11197;53.110;8.468;2022-11-25T08:36:15;13.80;;;4.30;;
22064;SDS011;11197;53.110;8.468;2022-11-25T08:38:43;16.02;;;4.53;;
22064;SDS011;11197;53.110;8.468;2022-11-25T08:41:12;16.25;;;4.63;;
22064;SDS011;11197;53.110;8.468;2022-11-25T08:43:40;16.60;;;4.25;;
22064;SDS011;11197;53.110;8.468;2022-11-25T08:46:08;14.57;;;4.65;;
22064;SDS011;11197;53.110;8.468;2022-11-25T08:48:43;16.35;;;4.65;;
22064;SDS011;11197;53.110;8.468;2022-11-25T08:51:11;15.13;;;4.88;;
22064;SDS011;11197;53.110;8.468;2022-11-25T08:53:39;13.63;;;4.65;;
22064;SDS011;11197;53.110;8.468;2022-11-25T08:56:05;20.85;;;5.40;;
22064;SDS011;11197;53.110;8.468;2022-11-25T08:58:33;21.08;;;5.10;;
22064;SDS011;11197;53.110;8.468;2022-11-25T09:01:00;18.40;;;5.72;;
22064;SDS011;11197;53.110;8.468;2022-11-25T09:03:26;18.05;;;5.65;;
22064;SDS011;11197;53.110;8.468;2022-11-25T09:05:53;16.45;;;5.75;;
22064;SDS011;11197;53.110;8.468;2022-11-25T09:08:19;17.58;;;6.03;;
22064;SDS011;11197;53.110;8.468;2022-11-25T09:10:45;19.02;;;5.82;;
22064;SDS011;11197;53.110;8.468;2022-11-25T09:13:11;22.17;;;5.63;;
22064;SDS011;11197;53.110;8.468;2022-11-25T09:15:39;19.85;;;5.88;;
22064;SDS011;11197;53.110;8.468;2022-11-25T09:18:07;15.95;;;5.47;;
22064;SDS011;11197;53.110;8.468;2022-11-25T09:20:36;15.88;;;5.68;;
22064;SDS011;11197;53.110;8.468;2022-11-25T09:23:03;20.75;;;6.30;;
22064;SDS011;11197;53.110;8.468;2022-11-25T09:25:30;21.80;;;6.10;;
22064;SDS011;11197;53.110;8.468;2022-11-25T09:27:57;21.63;;;5.95;;
22064;SDS011;11197;53.110;8.468;2022-11-25T09:30:24;21.30;;;6.20;;
22064;SDS011;11197;53.110;8.468;2022-11-25T09:32:51;18.17;;;6.60;;
22064;SDS011;11197;53.110;8.468;2022-11-25T09:35:18;19.83;;;6.55;;
22064;SDS011;11197;53.110;8.468;2022-11-25T09:37:45;20.95;;;6.75;;
22064;SDS011;11197;53.110;8.468;2022-11-25T09:40:26;20.52;;;6.38;;
22064;SDS011;11197;53.110;8.468;2022-11-25T09:46:14;20.25;;;6.38;;
22064;SDS011;11197;53.110;8.468;2022-11-25T09:52:02;20.27;;;6.95;;
22064;SDS011;11197;53.110;8.468;2022-11-25T09:54:38;16.77;;;6.28;;
22064;SDS011;11197;53.110;8.468;2022-11-25T10:08:26;21.67;;;6.80;;
22064;SDS011;11197;53.110;8.468;2022-11-25T10:10:57;18.20;;;6.28;;
22064;SDS011;11197;53.110;8.468;2022-11-25T10:13:37;19.52;;;6.93;;
22064;SDS011;11197;53.110;8.468;2022-11-25T10:16:06;18.05;;;7.03;;
22064;SDS011;11197;53.110;8.468;2022-11-25T10:19:00;19.52;;;7.00;;
22064;SDS011;11197;53.110;8.468;2022-11-25T10:21:35;18.23;;;6.82;;
22064;SDS011;11197;53.110;8.468;2022-11-25T10:24:02;16.80;;;6.63;;
22064;SDS011;11197;53.110;8.468;2022-11-25T10:26:33;17.13;;;6.63;;
22064;SDS011;11197;53.110;8.468;2022-11-25T10:29:48;16.77;;;6.40;;
22064;SDS011;11197;53.110;8.468;2022-11-25T10:31:55;17.17;;;6.40;;
22064;SDS011;11197;53.110;8.468;2022-11-25T10:34:37;18.95;;;6.43;;
22064;SDS011;11197;53.110;8.468;2022-11-25T10:37:17;19.77;;;6.25;;
22064;SDS011;11197;53.110;8.468;2022-11-25T10:40:02;15.05;;;6.57;;
22064;SDS011;11197;53.110;8.468;2022-11-25T10:42:28;16.65;;;6.28;;
22064;SDS011;11197;53.110;8.468;2022-11-25T10:44:56;21.80;;;7.50;;
22064;SDS011;11197;53.110;8.468;2022-11-25T10:55:16;17.42;;;7.47;;
22064;SDS011;11197;53.110;8.468;2022-11-25T10:57:46;20.42;;;7.55;;
22064;SDS011;11197;53.110;8.468;2022-11-25T11:02:57;21.63;;;6.95;;
22064;SDS011;11197;53.110;8.468;2022-11-25T11:05:37;21.23;;;7.57;;
22064;SDS011;11197;53.110;8.468;2022-11-25T11:08:15;21.60;;;7.32;;
22064;SDS011;11197;53.110;8.468;2022-11-25T11:10:44;20.77;;;8.13;;
22064;SDS011;11197;53.110;8.468;2022-11-25T11:15:46;19.90;;;7.15;;
22064;SDS011;11197;53.110;8.468;2022-11-25T11:18:29;22.52;;;9.50;;
22064;SDS011;11197;53.110;8.468;2022-11-25T11:21:07;19.50;;;8.88;;
22064;SDS011;11197;53.110;8.468;2022-11-25T11:23:47;21.27;;;8.23;;
22064;SDS011;11197;53.110;8.468;2022-11-25T11:26:33;20.30;;;8.63;;
22064;SDS011;11197;53.110;8.468;2022-11-25T11:29:02;18.45;;;8.77;;
22064;SDS011;11197;53.110;8.468;2022-11-25T11:31:30;17.33;;;8.63;;
22064;SDS011;11197;53.110;8.468;2022-11-25T11:34:02;22.90;;;9.02;;
22064;SDS011;11197;53.110;8.468;2022-11-25T11:36:42;21.05;;;8.75;;
22064;SDS011;11197;53.110;8.468;2022-11-25T11:54:09;19.88;;;9.55;;
22064;SDS011;11197;53.110;8.468;2022-11-25T11:56:51;17.05;;;9.90;;
22064;SDS011;11197;53.110;8.468;2022-11-25T12:05:01;19.80;;;10.48;;
22064;SDS011;11197;53.110;8.468;2022-11-25T12:07:35;24.77;;;11.20;;
22064;SDS011;11197;53.110;8.468;2022-11-25T12:15:19;25.13;;;13.23;;
22064;SDS011;11197;53.110;8.468;2022-11-25T12:17:56;23.85;;;13.25;;
22064;SDS011;11197;53.110;8.468;2022-11-25T12:23:07;35.80;;;15.00;;
22064;SDS011;11197;53.110;8.468;2022-11-25T12:25:40;29.90;;;14.65;;
22064;SDS011;11197;53.110;8.468;2022-11-25T12:28:21;31.50;;;14.57;;
22064;SDS011;11197;53.110;8.468;2022-11-25T12:33:43;25.67;;;14.07;;
22064;SDS011;11197;53.110;8.468;2022-11-25T12:36:21;29.80;;;13.77;;
22064;SDS011;11197;53.110;8.468;2022-11-25T12:46:48;22.65;;;13.85;;
22064;SDS011;11197;53.110;8.468;2022-11-25T12:49:26;29.58;;;14.10;;
22064;SDS011;11197;53.110;8.468;2022-11-25T13:11:34;20.63;;;11.20;;
22064;SDS011;11197;53.110;8.468;2022-11-25T13:16:57;23.73;;;11.15;;
22064;SDS011;11197;53.110;8.468;2022-11-25T13:19:24;23.02;;;11.07;;
22064;SDS011;11197;53.110;8.468;2022-11-25T13:22:03;21.77;;;11.00;;
22064;SDS011;11197;53.110;8.468;2022-11-25T13:24:51;27.27;;;10.90;;
22064;SDS011;11197;53.110;8.468;2022-11-25T13:30:05;19.00;;;10.20;;
22064;SDS011;11197;53.110;8.468;2022-11-25T13:32:51;19.98;;;10.60;;
22064;SDS011;11197;53.110;8.468;2022-11-25T13:37:46;20.95;;;10.23;;
22064;SDS011;11197;53.110;8.468;2022-11-25T13:42:55;20.10;;;9.90;;
22064;SDS011;11197;53.110;8.468;2022-11-25T13:45:25;18.33;;;9.98;;
22064;SDS011;11197;53.110;8.468;2022-11-25T13:50:28;24.33;;;10.02;;
22064;SDS011;11197;53.110;8.468;2022-11-25T13:53:05;23.52;;;9.52;;
22064;SDS011;11197;53.110;8.468;2022-11-25T13:55:53;20.20;;;10.18;;
22064;SDS011;11197;53.110;8.468;2022-11-25T13:59:03;20.95;;;9.98;;
22064;SDS011;11197;53.110;8.468;2022-11-25T14:01:37;20.65;;;9.82;;
22064;SDS011;11197;53.110;8.468;2022-11-25T14:04:10;23.65;;;10.65;;
22064;SDS011;11197;53.110;8.468;2022-11-25T14:09:42;19.30;;;10.00;;
22064;SDS011;11197;53.110;8.468;2022-11-25T14:20:57;22.13;;;9.80;;
22064;SDS011;11197;53.110;8.468;2022-11-25T14:26:03;19.38;;;8.80;;
22064;SDS011;11197;53.110;8.468;2022-11-25T14:31:20;23.20;;;9.45;;
22064;SDS011;11197;53.110;8.468;2022-11-25T14:33:58;19.50;;;9.30;;
22064;SDS011;11197;53.110;8.468;2022-11-25T14:36:32;21.58;;;9.32;;
22064;SDS011;11197;53.110;8.468;2022-11-25T14:39:03;18.50;;;8.60;;
22064;SDS011;11197;53.110;8.468;2022-11-25T14:41:39;23.10;;;9.70;;
22064;SDS011;11197;53.110;8.468;2022-11-25T14:44:15;17.25;;;8.15;;
22064;SDS011;11197;53.110;8.468;2022-11-25T14:46:53;17.38;;;8.50;;
22064;SDS011;11197;53.110;8.468;2022-11-25T14:49:22;17.05;;;8.70;;
22064;SDS011;11197;53.110;8.468;2022-11-25T14:51:49;24.02;;;9.43;;
22064;SDS011;11197;53.110;8.468;2022-11-25T14:54:16;17.92;;;8.85;;
22064;SDS011;11197;53.110;8.468;2022-11-25T14:56:43;29.02;;;12.38;;
22064;SDS011;11197;53.110;8.468;2022-11-25T14:59:11;22.65;;;10.02;;
22064;SDS011;11197;53.110;8.468;2022-11-25T15:01:38;19.48;;;8.80;;
22064;SDS011;11197;53.110;8.468;2022-11-25T15:04:16;17.92;;;8.52;;
22064;SDS011;11197;53.110;8.468;2022-11-25T15:06:50;20.63;;;9.73;;
22064;SDS011;11197;53.110;8.468;2022-11-25T15:09:29;19.17;;;9.70;;
22064;SDS011;11197;53.110;8.468;2022-11-25T15:12:03;20.38;;;9.50;;
22064;SDS011;11197;53.110;8.468;2022-11-25T15:14:35;17.50;;;9.57;;
22064;SDS011;11197;53.110;8.468;2022-11-25T15:17:08;19.13;;;9.25;;
22064;SDS011;11197;53.110;8.468;2022-11-25T15:19:56;20.60;;;9.20;;
22064;SDS011;11197;53.110;8.468;2022-11-25T15:22:28;18.55;;;8.68;;
22064;SDS011;11197;53.110;8.468;2022-11-25T15:24:54;18.42;;;10.07;;
22064;SDS011;11197;53.110;8.468;2022-11-25T15:27:32;20.85;;;10.48;;
22064;SDS011;11197;53.110;8.468;2022-11-25T15:29:58;17.88;;;9.55;;
22064;SDS011;11197;53.110;8.468;2022-11-25T15:32:28;21.70;;;10.45;;
22064;SDS011;11197;53.110;8.468;2022-11-25T15:34:57;17.05;;;9.88;;
22064;SDS011;11197;53.110;8.468;2022-11-25T15:37:25;22.63;;;12.02;;
22064;SDS011;11197;53.110;8.468;2022-11-25T15:42:55;35.25;;;16.80;;
22064;SDS011;11197;53.110;8.468;2022-11-25T15:45:24;29.25;;;12.35;;
22064;SDS011;11197;53.110;8.468;2022-11-25T15:47:57;32.60;;;15.38;;
22064;SDS011;11197;53.110;8.468;2022-11-25T15:50:24;35.63;;;18.13;;
22064;SDS011;11197;53.110;8.468;2022-11-25T15:52:57;23.23;;;11.10;;
22064;SDS011;11197;53.110;8.468;2022-11-25T15:55:32;31.98;;;11.30;;
22064;SDS011;11197;53.110;8.468;2022-11-25T16:01:38;22.63;;;10.65;;
22064;SDS011;11197;53.110;8.468;2022-11-25T16:06:23;24.60;;;10.73;;
22064;SDS011;11197;53.110;8.468;2022-11-25T16:08:53;25.27;;;11.73;;
22064;SDS011;11197;53.110;8.468;2022-11-25T16:11:28;25.00;;;11.45;;
22064;SDS011;11197;53.110;8.468;2022-11-25T16:17:04;24.95;;;11.75;;
22064;SDS011;11197;53.110;8.468;2022-11-25T16:19:39;21.00;;;9.05;;
22064;SDS011;11197;53.110;8.468;2022-11-25T16:22:10;20.50;;;9.25;;
22064;SDS011;11197;53.110;8.468;2022-11-25T16:24:46;22.05;;;9.38;;
22064;SDS011;11197;53.110;8.468;2022-11-25T16:27:16;22.42;;;9.05;;
22064;SDS011;11197;53.110;8.468;2022-11-25T16:29:49;20.73;;;8.30;;
22064;SDS011;11197;53.110;8.468;2022-11-25T16:32:17;19.05;;;8.07;;
22064;SDS011;11197;53.110;8.468;2022-11-25T16:34:44;23.08;;;7.22;;
22064;SDS011;11197;53.110;8.468;2022-11-25T16:37:11;18.92;;;6.78;;
22064;SDS011;11197;53.110;8.468;2022-11-25T16:39:37;18.02;;;7.10;;
22064;SDS011;11197;53.110;8.468;2022-11-25T16:42:03;17.73;;;6.32;;
22064;SDS011;11197;53.110;8.468;2022-11-25T16:44:30;20.88;;;6.22;;
22064;SDS011;11197;53.110;8.468;2022-11-25T16:46:58;16.33;;;6.50;;
22064;SDS011;11197;53.110;8.468;2022-11-25T16:49:25;14.50;;;5.68;;
22064;SDS011;11197;53.110;8.468;2022-11-25T16:51:53;15.18;;;6.00;;
22064;SDS011;11197;53.110;8.468;2022-11-25T16:54:20;16.05;;;5.65;;
22064;SDS011;11197;53.110;8.468;2022-11-25T16:56:47;19.13;;;5.60;;
22064;SDS011;11197;53.110;8.468;2022-11-25T16:59:19;18.53;;;5.77;;
22064;SDS011;11197;53.110;8.468;2022-11-25T17:01:57;13.60;;;5.63;;
22064;SDS011;11197;53.110;8.468;2022-11-25T17:04:24;19.77;;;6.07;;
22064;SDS011;11197;53.110;8.468;2022-11-25T17:06:54;18.42;;;6.57;;
22064;SDS011;11197;53.110;8.468;2022-11-25T17:09:20;18.17;;;7.57;;
22064;SDS011;11197;53.110;8.468;2022-11-25T17:11:47;18.52;;;7.20;;
22064;SDS011;11197;53.110;8.468;2022-11-25T17:14:37;18.75;;;7.20;;
22064;SDS011;11197;53.110;8.468;2022-11-25T17:17:04;19.48;;;7.78;;
22064;SDS011;11197;53.110;8.468;2022-11-25T17:19:30;21.48;;;6.75;;
22064;SDS011;11197;53.110;8.468;2022-11-25T17:21:56;17.40;;;6.07;;